Time;durP1;ratioP1;P1;durP2;ratioP2;P2;SDS_P1;SDS_P2;PMS_P1;PMS_P2;Temp;Humidity;BMP_temperature;BMP_pressure;BME280_temperature;BME280_humidity;BME280_pressure;Samples;Min_cycle;Max_cycle;Signal;HPM_P1;HPM_P2
2023/09/09 08:28:33;;;;;;;22.85;8.27;;;;;;;31.19;51.17;100546.63;5091427;23;20039;-96
2023/09/09 08:31:00;;;;;;;24.50;9.95;;;;;;;31.80;50.16;100548.41;4955327;29;20061;-96
2023/09/09 08:33:26;;;;;;;23.17;8.30;;;;;;;31.65;49.68;100550.66;4939580;29;20107;-96
2023/09/09 08:36:00;;;;;;;19.75;8.63;;;;;;;32.03;49.33;100542.38;4940938;29;20032;-96
2023/09/09 08:38:25;;;;;;;23.70;10.45;;;;;;;32.45;47.55;100545.00;4940316;29;20059;-96
2023/09/09 08:41:07;;;;;;;17.73;7.18;;;;;;;32.62;47.17;100547.84;4939536;29;20028;-96
2023/09/09 08:43:41;;;;;;;15.98;7.60;;;;;;;32.72;47.28;100553.44;4941509;29;20039;-96
2023/09/09 08:46:15;;;;;;;21.38;6.82;;;;;;;32.24;47.28;100558.91;4941083;29;20031;-96
2023/09/09 08:48:44;;;;;;;25.88;7.60;;;;;;;32.84;46.00;100556.91;4940207;29;20019;-96
2023/09/09 09:01:32;;;;;;;18.67;6.63;;;;;;;31.83;49.42;100553.28;4932310;29;20059;-96
2023/09/09 09:03:59;;;;;;;16.02;5.80;;;;;;;32.70;45.84;100546.69;4931956;29;20020;-96
2023/09/09 09:06:26;;;;;;;17.75;5.97;;;;;;;32.86;46.81;100550.53;4932195;29;20040;-96
2023/09/09 09:08:52;;;;;;;15.80;6.43;;;;;;;32.45;47.24;100545.00;4933910;29;20031;-96
2023/09/09 09:11:20;;;;;;;13.32;5.50;;;;;;;32.75;46.47;100550.31;4934397;29;20300;-96
2023/09/09 09:13:47;;;;;;;15.50;6.80;;;;;;;32.82;46.57;100545.66;4934080;29;20028;-96
2023/09/09 09:16:13;;;;;;;18.63;5.80;;;;;;;32.75;47.39;100550.31;4936251;29;20451;-96
2023/09/09 09:18:39;;;;;;;17.48;6.35;;;;;;;32.56;48.97;100551.47;4934969;29;20028;-96
2023/09/09 09:21:09;;;;;;;13.75;5.05;;;;;;;32.97;46.56;100544.34;4936677;29;20023;-96
2023/09/09 09:23:45;;;;;;;;;;;;;;;33.05;46.36;100544.03;4936961;29;20020;-96
2023/09/09 09:26:27;;;;;;;24.25;6.85;;;;;;;33.14;45.22;100542.66;4935432;29;20303;-96
2023/09/09 09:28:53;;;;;;;14.55;5.22;;;;;;;32.64;47.07;100543.09;4933212;29;20031;-96
2023/09/09 09:31:20;;;;;;;14.60;5.47;;;;;;;32.79;45.90;100548.78;4931399;29;20028;-96
2023/09/09 09:33:57;;;;;;;13.00;4.50;;;;;;;33.04;47.12;100542.41;4929879;29;20063;-96
2023/09/09 09:36:23;;;;;;;14.13;4.18;;;;;;;33.00;46.81;100547.38;4931352;29;20088;-96
2023/09/09 09:38:50;;;;;;;24.55;5.75;;;;;;;32.91;45.57;100551.47;4931652;29;20025;-96
2023/09/09 09:41:20;;;;;;;14.38;5.25;;;;;;;33.31;45.37;100557.94;4929330;29;20040;-96
2023/09/09 09:43:47;;;;;;;29.63;5.22;;;;;;;32.45;46.30;100561.03;4929677;29;20051;-96
2023/09/09 09:46:17;;;;;;;13.82;3.95;;;;;;;32.97;45.51;100555.03;4928841;29;20036;-96
2023/09/09 09:48:43;;;;;;;11.98;3.83;;;;;;;33.33;44.77;100548.63;4927469;29;20029;-96
2023/09/09 09:51:10;;;;;;;18.08;4.72;;;;;;;33.40;44.82;100554.66;4930045;29;20024;-96
2023/09/09 09:53:48;;;;;;;16.25;4.28;;;;;;;32.89;44.46;100555.41;4928829;29;20028;-96
2023/09/09 09:56:17;;;;;;;18.83;5.28;;;;;;;32.78;45.17;100555.19;4929903;29;20028;-96
2023/09/09 09:58:47;;;;;;;12.32;5.15;;;;;;;33.00;46.06;100554.59;4930994;29;20072;-96
2023/09/09 10:01:13;;;;;;;13.80;3.38;;;;;;;33.33;41.81;100555.84;4928974;29;20103;-96
2023/09/09 10:03:55;;;;;;;14.85;3.97;;;;;;;33.51;41.78;100553.03;4927965;29;20032;-96
2023/09/09 10:06:28;;;;;;;11.35;4.00;;;;;;;33.35;42.24;100554.56;4928533;29;20052;-96
2023/09/09 10:09:25;;;;;;;13.40;4.22;;;;;;;33.34;42.23;100552.94;4928837;29;20036;-95
2023/09/09 10:24:49;;;;;;;6.75;2.78;;;;;;;33.58;36.64;100537.69;5005710;23;20060;-96
2023/09/09 10:27:17;;;;;;;8.60;3.05;;;;;;;33.87;37.63;100546.53;4957893;29;20038;-96
2023/09/09 10:29:44;;;;;;;11.93;3.03;;;;;;;33.25;37.17;100540.97;4958931;28;20024;-96
2023/09/09 10:32:12;;;;;;;9.57;2.20;;;;;;;33.41;37.98;100534.91;4948661;29;20030;-96
2023/09/09 10:34:39;;;;;;;13.35;4.00;;;;;;;33.46;39.47;100543.03;4941716;29;20024;-96
2023/09/09 10:37:06;;;;;;;12.95;3.78;;;;;;;33.31;37.35;100534.72;4941602;29;20105;-96
2023/09/09 10:39:33;;;;;;;8.25;2.80;;;;;;;33.88;38.13;100537.44;4941672;29;20014;-96
2023/09/09 10:42:00;;;;;;;8.93;3.10;;;;;;;34.10;37.01;100540.25;4938492;29;20076;-96
2023/09/09 10:44:26;;;;;;;8.57;2.80;;;;;;;33.91;37.40;100546.84;4938166;29;20039;-96
2023/09/09 10:46:56;;;;;;;10.27;2.92;;;;;;;34.02;37.07;100537.94;4940363;29;20028;-96
2023/09/09 10:49:31;;;;;;;13.25;2.88;;;;;;;33.68;37.41;100543.22;4939206;29;20028;-96
2023/09/09 10:52:00;;;;;;;9.00;3.08;;;;;;;33.24;38.70;100545.53;4940550;29;20036;-96
2023/09/09 10:54:29;;;;;;;11.00;3.03;;;;;;;33.72;39.48;100542.72;4940889;29;20032;-96
2023/09/09 10:57:01;;;;;;;9.70;2.78;;;;;;;33.81;38.52;100552.81;4940564;29;20028;-96
2023/09/09 10:59:30;;;;;;;12.48;3.25;;;;;;;33.83;37.55;100545.38;4938613;29;20024;-96
2023/09/09 11:02:18;;;;;;;9.80;2.80;;;;;;;34.03;37.80;100547.59;4938289;29;20074;-96
2023/09/09 11:04:58;;;;;;;6.88;2.35;;;;;;;34.15;38.07;100541.41;4936711;29;20059;-96
2023/09/09 11:07:24;;;;;;;9.35;2.78;;;;;;;34.61;36.94;100550.22;4937162;29;20051;-96
2023/09/09 11:09:51;;;;;;;21.15;3.90;;;;;;;34.68;36.56;100550.88;4934568;29;20033;-96
2023/09/09 11:12:17;;;;;;;10.15;2.60;;;;;;;34.70;35.61;100548.72;4936947;29;20024;-96
2023/09/09 11:15:01;;;;;;;12.98;3.05;;;;;;;34.92;36.06;100552.28;4936742;29;20092;-96
2023/09/09 11:17:28;;;;;;;12.00;3.47;;;;;;;34.60;36.17;100543.22;4936107;29;20032;-96
2023/09/09 11:19:54;;;;;;;11.13;3.03;;;;;;;34.80;36.77;100542.69;4936636;29;20064;-96
2023/09/09 11:22:22;;;;;;;8.45;3.22;;;;;;;34.98;36.61;100538.94;4936825;29;20020;-96
2023/09/09 11:24:48;;;;;;;7.28;2.75;;;;;;;34.65;38.87;100540.59;4922062;29;20506;-96
2023/09/09 11:27:15;;;;;;;12.15;3.10;;;;;;;34.98;36.56;100533.56;4935264;29;20024;-97
2023/09/09 11:29:51;;;;;;;6.90;2.72;;;;;;;35.25;36.84;100539.84;4931710;29;20115;-96
2023/09/09 11:32:25;;;;;;;8.23;3.03;;;;;;;35.21;36.42;100538.72;4932564;29;20039;-96
2023/09/09 11:35:11;;;;;;;10.10;2.67;;;;;;;35.43;36.35;100533.34;4938837;29;20024;-96
2023/09/09 11:38:03;;;;;;;10.10;2.50;;;;;;;35.60;36.10;100535.97;4941709;29;20019;-96
2023/09/09 11:40:41;;;;;;;13.25;3.20;;;;;;;35.60;37.35;100529.81;4939888;29;20099;-96
2023/09/09 11:43:11;;;;;;;12.15;3.55;;;;;;;35.56;36.93;100529.47;4938143;29;20088;-96
2023/09/09 11:45:39;;;;;;;12.95;3.08;;;;;;;35.69;37.76;100529.09;4954701;29;20052;-96
2023/09/09 11:48:13;;;;;;;17.58;4.75;;;;;;;36.25;36.94;100528.03;4938333;29;20024;-96
2023/09/09 11:50:45;;;;;;;15.75;4.22;;;;;;;35.89;37.15;100533.06;4937181;29;20053;-96
2023/09/09 11:53:15;;;;;;;14.45;3.35;;;;;;;35.92;35.60;100527.16;4955851;29;20040;-96
2023/09/09 11:55:42;;;;;;;15.93;2.90;;;;;;;36.54;35.77;100523.94;4942480;29;20043;-96
2023/09/09 11:58:37;;;;;;;13.35;3.13;;;;;;;36.33;35.46;100524.84;4958867;29;20036;-96
2023/09/09 12:01:23;;;;;;;8.30;2.53;;;;;;;36.59;35.67;100526.69;4958821;28;20076;-96
2023/09/09 12:04:16;;;;;;;6.38;2.78;;;;;;;36.96;35.39;100520.44;4959776;29;20055;-96
2023/09/09 12:07:26;;;;;;;11.77;3.35;;;;;;;36.56;34.82;100519.13;4958941;29;20056;-96
2023/09/09 12:09:57;;;;;;;8.38;2.67;;;;;;;37.16;32.84;100513.56;4958532;29;20027;-96
2023/09/09 12:12:27;;;;;;;12.95;2.60;;;;;;;37.13;33.19;100522.97;4958886;29;20030;-96
2023/09/09 12:15:18;;;;;;;8.82;2.47;;;;;;;37.33;33.08;100530.31;4958052;29;20091;-96
2023/09/09 12:18:00;;;;;;;9.75;2.45;;;;;;;37.49;34.31;100528.47;4959468;29;20022;-96
2023/09/09 12:21:05;;;;;;;16.70;2.90;;;;;;;37.56;33.37;100526.38;4945756;29;20039;-96
2023/09/09 12:23:41;;;;;;;7.60;2.70;;;;;;;38.03;33.25;100519.19;4940078;29;20087;-96
2023/09/09 12:26:14;;;;;;;11.50;2.88;;;;;;;37.76;33.41;100516.72;4955452;29;20031;-96
2023/09/09 12:28:47;;;;;;;10.75;2.42;;;;;;;37.87;32.59;100519.16;4956205;29;20030;-96
2023/09/09 12:31:14;;;;;;;12.27;3.22;;;;;;;38.30;31.95;100516.19;4953637;29;20047;-96
2023/09/09 12:33:44;;;;;;;11.05;3.10;;;;;;;37.38;32.76;100522.25;4939540;29;20031;-96
2023/09/09 12:36:16;;;;;;;10.82;3.72;;;;;;;37.33;33.18;100514.16;4956972;29;20028;-96
2023/09/09 12:39:09;;;;;;;8.80;2.40;;;;;;;37.43;32.68;100511.50;4955250;29;20027;-96
2023/09/09 12:42:12;;;;;;;14.20;3.50;;;;;;;37.59;33.58;100501.59;4940363;29;20032;-96
2023/09/09 12:44:52;;;;;;;9.40;2.60;;;;;;;37.47;33.40;100515.25;4939592;29;20096;-96
2023/09/09 12:47:24;;;;;;;8.30;2.42;;;;;;;38.24;32.80;100515.41;4938528;29;20043;-96
2023/09/09 12:49:54;;;;;;;11.20;3.10;;;;;;;37.95;33.00;100520.50;4940156;29;20008;-96
2023/09/09 12:52:30;;;;;;;9.63;2.63;;;;;;;37.99;33.44;100520.78;4939891;29;20091;-96
2023/09/09 12:55:16;;;;;;;9.82;2.55;;;;;;;37.73;33.01;100518.06;4939196;29;20047;-96
2023/09/09 12:58:24;;;;;;;9.82;2.47;;;;;;;37.91;33.41;100508.63;4939975;29;20060;-96
2023/09/09 13:01:21;;;;;;;;;;;;;;;37.28;33.91;100516.81;4956851;29;20036;-96
2023/09/09 13:04:16;;;;;;;10.35;2.28;;;;;;;37.57;33.05;100513.72;4941596;29;19946;-96
2023/09/09 13:07:17;;;;;;;12.52;2.28;;;;;;;37.03;34.01;100510.25;4940193;29;20016;-96
2023/09/09 13:09:45;;;;;;;13.27;2.33;;;;;;;37.36;33.52;100510.94;4940201;29;20058;-96
2023/09/09 13:25:08;;;;;;;16.88;2.40;;;;;;;35.69;35.41;100496.06;5997650;23;20925;-96
2023/09/09 13:27:37;;;;;;;11.55;2.63;;;;;;;35.19;36.07;100492.56;4956478;29;20103;-96
2023/09/09 13:30:03;;;;;;;6.25;2.53;;;;;;;35.51;35.66;100478.44;4957134;29;20052;-96
2023/09/09 13:32:29;;;;;;;11.43;2.97;;;;;;;35.37;36.37;100489.53;4944804;29;20035;-96
2023/09/09 13:34:54;;;;;;;14.88;3.13;;;;;;;35.04;36.21;100492.34;4935453;29;20084;-96
2023/09/09 13:37:20;;;;;;;10.20;2.67;;;;;;;35.17;37.19;100491.19;4934733;29;20043;-96
2023/09/09 13:39:46;;;;;;;10.23;3.25;;;;;;;35.50;36.95;100498.25;4934572;29;20028;-96
2023/09/09 13:42:11;;;;;;;16.77;3.03;;;;;;;35.47;36.66;100490.72;4934652;29;20028;-96
2023/09/09 13:44:37;;;;;;;8.02;2.17;;;;;;;35.34;36.82;100498.09;4936469;29;20028;-96
2023/09/09 13:47:03;;;;;;;10.77;2.53;;;;;;;34.53;37.89;100495.09;4938198;29;20004;-96
2023/09/09 13:49:29;;;;;;;8.30;2.03;;;;;;;34.65;38.01;100498.53;4941432;29;20040;-96
2023/09/09 13:51:55;;;;;;;12.45;2.95;;;;;;;34.48;37.38;100501.22;4943168;29;20028;-96
2023/09/09 13:54:21;;;;;;;10.18;2.92;;;;;;;34.35;38.05;100498.84;4942271;29;20042;-96
2023/09/09 13:56:46;;;;;;;15.20;2.67;;;;;;;34.41;38.63;100497.88;4939305;29;20032;-96
2023/09/09 13:59:12;;;;;;;11.98;3.22;;;;;;;34.39;38.42;100505.34;4937434;29;20028;-96
2023/09/09 14:01:37;;;;;;;12.15;2.70;;;;;;;34.27;38.83;100502.75;4936309;29;20028;-96
2023/09/09 14:04:03;;;;;;;9.20;1.98;;;;;;;34.50;38.01;100500.94;4938315;29;20029;-96
2023/09/09 14:06:29;;;;;;;9.63;2.70;;;;;;;34.55;38.54;100497.53;4932961;29;20032;-96
2023/09/09 14:08:54;;;;;;;18.35;2.90;;;;;;;34.22;38.72;100489.28;4929965;29;20036;-96
2023/09/09 14:11:20;;;;;;;11.38;2.67;;;;;;;34.20;40.04;100490.59;4933412;29;20036;-96
2023/09/09 14:13:45;;;;;;;15.45;3.50;;;;;;;34.03;39.44;100498.59;4934969;29;20056;-96
2023/09/09 14:16:11;;;;;;;14.70;2.80;;;;;;;34.09;39.66;100484.22;4934167;29;20024;-96
2023/09/09 14:18:37;;;;;;;18.55;3.00;;;;;;;34.04;39.89;100487.63;4930865;29;20028;-95
2023/09/09 14:21:02;;;;;;;9.38;2.60;;;;;;;33.82;41.06;100481.34;4934631;29;20060;-96
2023/09/09 14:23:28;;;;;;;20.25;3.28;;;;;;;33.99;40.28;100482.16;4935824;29;20043;-96
2023/09/09 14:25:54;;;;;;;11.38;2.90;;;;;;;33.92;39.90;100478.03;4937691;29;20024;-96
2023/09/09 14:28:19;;;;;;;8.93;2.30;;;;;;;33.96;39.63;100477.31;4939250;29;20107;-96
2023/09/09 14:30:46;;;;;;;11.18;3.08;;;;;;;33.77;40.88;100474.03;4939143;29;20024;-96
2023/09/09 14:33:12;;;;;;;13.07;2.85;;;;;;;33.64;40.02;100483.19;4938189;29;20028;-96
2023/09/09 14:35:38;;;;;;;23.90;4.55;;;;;;;33.17;41.58;100477.97;4937108;29;20052;-96
2023/09/09 14:38:03;;;;;;;12.60;3.40;;;;;;;33.37;42.66;100476.75;4936193;29;20440;-96
2023/09/09 14:40:29;;;;;;;21.88;3.05;;;;;;;33.29;42.20;100479.78;4935196;29;20031;-96
2023/09/09 14:42:54;;;;;;;14.57;2.97;;;;;;;33.11;41.71;100476.22;4932645;29;20028;-96
2023/09/09 14:45:20;;;;;;;15.55;4.13;;;;;;;33.09;41.37;100478.31;4935216;29;20047;-96
2023/09/09 14:47:46;;;;;;;12.40;2.92;;;;;;;32.91;41.58;100462.41;4935383;29;20028;-96
2023/09/09 14:50:11;;;;;;;8.25;3.00;;;;;;;33.00;41.71;100466.34;4935303;29;20052;-96
2023/09/09 14:52:37;;;;;;;20.27;3.95;;;;;;;32.62;42.33;100465.00;4934059;29;20035;-96
2023/09/09 14:55:03;;;;;;;19.35;3.38;;;;;;;32.84;43.63;100467.88;4935148;29;20036;-96
2023/09/09 14:57:29;;;;;;;15.52;3.55;;;;;;;32.95;43.53;100469.75;4935325;29;20031;-96
2023/09/09 14:59:54;;;;;;;14.13;3.25;;;;;;;32.69;42.88;100476.38;4931768;29;20025;-96
2023/09/09 15:02:20;;;;;;;14.20;4.53;;;;;;;32.89;43.79;100470.66;4932307;29;20032;-96
2023/09/09 15:04:46;;;;;;;19.98;3.50;;;;;;;32.60;43.62;100475.94;4934576;29;20031;-96
2023/09/09 15:07:12;;;;;;;8.07;2.67;;;;;;;32.70;44.11;100475.34;4931724;29;20028;-96
2023/09/09 15:09:38;;;;;;;12.10;3.25;;;;;;;32.46;43.24;100476.34;4934466;29;20024;-96
2023/09/09 15:12:04;;;;;;;14.90;4.78;;;;;;;32.51;44.27;100468.50;4935318;29;20044;-96
2023/09/09 15:14:30;;;;;;;24.42;4.03;;;;;;;32.25;43.78;100467.88;4935166;29;20020;-96
2023/09/09 15:19:31;;;;;;;17.98;4.15;;;;;;;31.61;45.64;100464.09;5582882;23;20048;-96
2023/09/09 15:21:57;;;;;;;11.43;3.00;;;;;;;31.47;46.47;100464.25;4949004;29;20123;-96
2023/09/09 15:24:23;;;;;;;10.63;3.30;;;;;;;31.64;46.36;100468.97;4937663;29;20047;-96
2023/09/09 15:26:50;;;;;;;18.88;3.70;;;;;;;31.47;46.80;100464.25;4936999;29;20051;-96
2023/09/09 15:29:16;;;;;;;18.75;4.05;;;;;;;31.53;46.85;100458.03;4935968;29;20024;-96
2023/09/09 15:31:42;;;;;;;9.18;2.88;;;;;;;31.43;47.15;100457.75;4937087;29;20052;-95
2023/09/09 15:34:07;;;;;;;12.27;2.92;;;;;;;31.39;49.20;100453.06;4937070;29;20004;-96
2023/09/09 15:36:33;;;;;;;8.18;2.97;;;;;;;31.24;50.50;100448.09;4936871;29;20103;-96
2023/09/09 15:38:58;;;;;;;18.25;3.35;;;;;;;31.21;51.05;100451.22;4937209;29;20108;-96
2023/09/09 15:41:26;;;;;;;9.63;3.03;;;;;;;31.24;49.46;100448.09;4938094;29;20047;-96
2023/09/09 15:43:52;;;;;;;12.55;2.50;;;;;;;31.25;48.59;100453.22;4938360;29;20028;-96
2023/09/09 15:46:17;;;;;;;10.48;2.80;;;;;;;31.32;47.84;100456.63;4939073;29;20079;-96
2023/09/09 15:48:43;;;;;;;13.52;3.00;;;;;;;31.26;48.06;100444.22;4940343;29;20081;-96
2023/09/09 15:51:09;;;;;;;14.60;3.28;;;;;;;31.17;48.79;100448.22;4939832;29;20039;-96
2023/09/09 15:53:35;;;;;;;13.95;3.78;;;;;;;31.32;47.64;100445.16;4940420;29;20032;-96
2023/09/09 15:56:00;;;;;;;15.52;4.25;;;;;;;31.24;48.41;100448.09;4939781;29;20051;-96
2023/09/09 15:58:26;;;;;;;12.55;3.55;;;;;;;31.24;48.30;100445.44;4940138;29;20027;-96
2023/09/09 16:00:51;;;;;;;14.77;3.55;;;;;;;31.05;47.59;100450.81;4939296;29;20036;-96
2023/09/09 16:03:18;;;;;;;15.10;3.22;;;;;;;30.98;48.28;100442.06;4938531;29;20034;-96
2023/09/09 16:05:45;;;;;;;14.70;3.38;;;;;;;31.07;50.00;100435.41;4938953;29;20020;-96
2023/09/09 16:08:10;;;;;;;10.95;3.72;;;;;;;31.01;51.01;100438.94;4940017;29;20110;-96
2023/09/09 16:10:37;;;;;;;13.43;3.22;;;;;;;31.03;49.59;100439.56;4940118;29;20042;-96
2023/09/09 16:13:04;;;;;;;8.23;2.78;;;;;;;30.98;51.35;100428.75;4937737;29;20060;-96
2023/09/09 16:15:32;;;;;;;14.05;3.47;;;;;;;31.00;50.79;100432.00;4938687;29;20024;-96
2023/09/09 16:17:58;;;;;;;13.02;4.00;;;;;;;30.92;52.98;100421.63;4937671;29;20020;-96
2023/09/09 16:20:24;;;;;;;15.55;3.72;;;;;;;31.11;49.40;100423.25;4935638;29;20033;-96
2023/09/09 16:22:49;;;;;;;9.90;2.97;;;;;;;31.01;50.81;100438.94;4936801;29;20043;-96
2023/09/09 16:25:15;;;;;;;9.85;2.80;;;;;;;30.94;50.07;100432.88;4937888;29;20015;-96
2023/09/09 16:27:41;;;;;;;10.15;3.00;;;;;;;30.85;50.70;100434.25;4939076;29;20073;-96
2023/09/09 16:30:08;;;;;;;18.27;4.25;;;;;;;30.77;52.62;100432.63;4935685;29;20047;-96
2023/09/09 16:32:33;;;;;;;16.65;3.92;;;;;;;30.49;51.84;100427.81;4927825;29;20032;-96
2023/09/09 16:34:59;;;;;;;11.45;3.45;;;;;;;30.49;53.50;100430.47;4927999;29;20295;-96
2023/09/09 16:37:25;;;;;;;12.75;3.78;;;;;;;30.68;53.90;100434.78;4928166;29;20028;-96
2023/09/09 16:39:51;;;;;;;9.25;3.38;;;;;;;30.43;53.30;100431.34;4932054;29;20039;-96
2023/09/09 16:42:17;;;;;;;9.00;3.83;;;;;;;30.28;55.52;100429.00;4916014;29;20036;-96
2023/09/09 16:50:04;;;;;;;12.80;3.42;;;;;;;30.08;54.19;100435.28;4962016;23;20032;-96
2023/09/09 16:52:30;;;;;;;14.35;3.70;;;;;;;29.94;55.46;100436.41;4947409;29;20043;-96
2023/09/09 16:54:55;;;;;;;11.55;3.63;;;;;;;29.88;57.06;100433.81;4940730;29;20031;-96
2023/09/09 16:57:21;;;;;;;11.38;3.75;;;;;;;29.78;57.49;100437.75;4940989;29;20019;-96
2023/09/09 16:59:46;;;;;;;11.88;3.58;;;;;;;29.69;58.11;100436.38;4941849;29;20032;-96
2023/09/09 17:02:12;;;;;;;11.00;2.92;;;;;;;29.48;61.45;100434.81;4942037;29;20036;-96
2023/09/09 17:53:46;;;;;;;9.52;3.53;;;;;;;28.08;70.84;100455.50;5077642;23;20046;-96
2023/09/09 17:56:11;;;;;;;12.10;3.92;;;;;;;27.92;69.53;100451.38;4959677;29;20024;-96
2023/09/09 17:58:37;;;;;;;10.65;4.03;;;;;;;27.86;70.17;100452.19;4960269;29;20031;-96
2023/09/09 18:01:03;;;;;;;8.15;3.35;;;;;;;27.68;70.61;100448.25;4960080;29;20051;-96
2023/09/09 18:03:29;;;;;;;7.70;4.05;;;;;;;27.71;70.27;100455.81;4956108;28;20023;-96
